Thursday, May 24, 2018, 12:28 AM EDT
Back to Local

KOXC, Oxford, Waterbury-oxford Airport

Location: Oxford, CT, United States Lat: 41.483
Local Time: 12:28 AM EDT ( 4:28 GMT) Lon: -73.133
Time Zone: US/Eastern Elev: 725 ft

Show me the last for .
Show Decoded

2018-05-23 23:51 METAR KOXC 240351Z AUTO 35007KT 10SM CLR 18/09 A3003 RMK AO2 SLP175 T01830094 =
2018-05-23 22:51 METAR KOXC 240251Z AUTO 36005KT 10SM CLR 17/09 A3002 RMK AO2 SLP174 T01720089
                 51019 =
2018-05-23 21:51 METAR KOXC 240151Z AUTO 00000KT 10SM CLR 19/08 A3001 RMK AO2 SLP170 T01940078 =
2018-05-23 20:51 METAR KOXC 240051Z 33003KT 10SM CLR 21/08 A2998 RMK AO2 SLP162 T02110078 =
2018-05-23 19:51 METAR KOXC 232351Z 31004KT 10SM CLR 24/07 A2996 RMK AO2 SLP154 T02390072 10261
                 20239 53010 =
2018-05-23 18:51 METAR KOXC 232251Z 32005KT 10SM CLR 26/09 A2995 RMK AO2 SLP148 T02560089 =
2018-05-23 17:51 METAR KOXC 232151Z 30008KT 10SM CLR 26/09 A2994 RMK AO2 SLP145 T02560094 =
2018-05-23 16:51 METAR KOXC 232051Z 32007G15KT 10SM FEW065 26/09 A2993 RMK AO2 SLP144 T02560094
                 53000 =
2018-05-23 15:51 METAR KOXC 231951Z 34010G16KT 310V010 10SM FEW065 26/12 A2993 RMK AO2 SLP143
                 T02560122 =
2018-05-23 14:51 METAR KOXC 231851Z 33012G21KT 10SM FEW035 25/11 A2993 RMK AO2 SLP143 T02500111 =
2018-05-23 13:51 METAR KOXC 231751Z VRB05KT 10SM FEW035 23/13 A2993 RMK AO2 SLP146 T02330133
                 10239 20144 58003 =
2018-05-23 12:51 METAR KOXC 231651Z 32008G15KT 300V010 10SM FEW033 23/13 A2994 RMK AO2 SLP147
                 T02280133 =
2018-05-23 11:51 METAR KOXC 231551Z 36007G17KT 10SM FEW033 21/14 A2994 RMK AO2 SLP149 T02110144 =
2018-05-23 10:51 METAR KOXC 231451Z 31007KT 10SM SCT020 BKN100 20/15 A2994 RMK AO2 SLP149
                 T02000150 51007 =
2018-05-23 10:00 METAR KOXC 231400Z 32006KT 10SM SCT007 BKN100 17/16 A2993 RMK AO2 =
2018-05-23 09:56 METAR KOXC 231356Z COR VRB04KT 10SM SCT007 BKN100 17/16 A2994 RMK AO2 =
2018-05-23 09:51 METAR KOXC 231351Z 32005KT 10SM FEW007 BKN017 OVC100 17/16 A2994 RMK AO2 SLP147
                 T01720156 =
2018-05-23 09:14 METAR KOXC 231314Z VRB04KT 10SM FEW007 BKN017 OVC100 16/15 A2994 RMK AO2 =
2018-05-23 08:51 METAR KOXC 231251Z 28003KT 10SM SCT005 SCT011 OVC110 16/14 A2994 RMK AO2 SLP148
                 T01560144 =
2018-05-23 08:38 METAR KOXC 231238Z 32003KT 5SM BR BKN005 15/14 A2993 RMK AO2 =
2018-05-23 07:51 METAR KOXC 231151Z 35006KT 3SM BR BKN003 14/14 A2992 RMK AO2 SLP142 60008 70018
                 T01440144 10144 20122 53006 =
2018-05-23 06:51 METAR KOXC 231051Z 00000KT 1/2SM FG OVC002 13/13 A2991 RMK AO2 RAE0954 SLP140
                 P0000 T01330133 =
2018-05-23 06:01 METAR KOXC 231001Z 00000KT 1/2SM FG BKN002 OVC100 13/13 A2990 RMK AO2 RAE0954
                 CIG 001V007 P0000 =
2018-05-23 05:51 METAR KOXC 230951Z AUTO 19004KT 3/4SM -RA BR BKN002 BKN007 OVC100 13/12 A2991
                 RMK AO2 RAB39 SLP139 P0000 T01280122 =
2018-05-23 05:42 METAR KOXC 230942Z AUTO 00000KT 1 1/2SM -RA BR BKN002 OVC100 13/13 A2990 RMK AO2
                 RAB39 CIG 002V007 P0000 =
2018-05-23 05:29 METAR KOXC 230929Z AUTO 00000KT 2SM BR OVC002 13/12 A2989 RMK AO2 =
2018-05-23 04:51 METAR KOXC 230851Z AUTO 00000KT 3SM BR OVC002 12/12 A2990 RMK AO2 RAE0755 SLP137
                 P0000 60008 T01220122 56010 =
2018-05-23 04:44 METAR KOXC 230844Z AUTO 00000KT 3SM BR OVC002 12/12 A2990 RMK AO2 RAE0755 P0000
                 =
2018-05-23 04:38 METAR KOXC 230838Z AUTO 00000KT 1 3/4SM BR OVC002 12/12 A2990 RMK AO2 RAE0755
                 P0000 =
2018-05-23 04:23 METAR KOXC 230823Z AUTO 20003KT 3/4SM BR BKN002 OVC095 12/12 A2990 RMK AO2
                 RAE0755 P0000 =
2018-05-23 04:13 METAR KOXC 230813Z AUTO 00000KT 2 1/2SM BR BKN002 OVC095 12/12 A2991 RMK AO2 VIS
                 3/4V5 LTG DSNT SE RAE0755 P0000 =
2018-05-23 03:51 METAR KOXC 230751Z AUTO 33004KT 9SM -RA OVC002 12/12 A2991 RMK AO2 LTG DSNT E
                 AND SE TSE0656B0657E22B24E28 SLP138 P0007 T01220122 =
2018-05-23 03:34 METAR KOXC 230734Z AUTO 31003KT 5SM -RA BR OVC002 12/12 A2991 RMK AO2 LTG DSNT
                 E-S TSE0656B0657E22B24E28 P0006 =
2018-05-23 03:24 METAR KOXC 230724Z AUTO 32003KT 5SM -TSRA BR OVC002 12/12 A2991 RMK AO2 LTG DSNT
                 SE-SW TSE0656B0657E22B24 P0006 =
2018-05-23 03:16 METAR KOXC 230716Z AUTO 00000KT 3SM TSRA BR OVC002 12/12 A2992 RMK AO2 LTG DSNT
                 SE-SW TSE0656B0657 P0004 =
2018-05-23 02:59 METAR KOXC 230659Z AUTO VRB04KT 1SM VCTS RA BR OVC002 12/12 A2993 RMK AO2 LTG
                 DSNT S AND SW TSE56B57 P0001 =
2018-05-23 02:56 METAR KOXC 230656Z AUTO 22004KT 3/4SM RA BR OVC002 12/12 A2993 RMK AO2 LTG DSNT
                 S AND SW TSE56 P0000 =
2018-05-23 02:51 METAR KOXC 230651Z AUTO 00000KT 1/2SM -TSRA FG OVC002 12/12 A2992 RMK AO2 LTG
                 DSNT S-W TSB30RAB34 SLP141 P0001 T01220122 =
2018-05-23 02:36 METAR KOXC 230636Z AUTO 22003KT 1/2SM VCTS -RA FG OVC002 12/12 A2992 RMK AO2 LTG
                 DSNT W TSB30RAB34 P0000 =
2018-05-23 01:51 METAR KOXC 230551Z AUTO 00000KT 1/4SM FG OVC002 12/12 A2993 RMK AO2 SLP145
                 T01220122 10122 20117 56021 =
2018-05-23 00:51 METAR KOXC 230451Z AUTO 00000KT 1/4SM FG OVC002 12/12 A2994 RMK AO2 SLP150
                 T01170117 401940111 =

Support USWX by starting your Amazon purchase here.